sensor_id;sensor_type;location;lat;lon;timestamp;P1;durP1;ratioP1;P2;durP2;ratioP2
9712;SDS011;4895;50.926;6.870;2023-07-20T00:01:25;8.60;;;3.47;;
9712;SDS011;4895;50.926;6.870;2023-07-20T00:03:51;5.60;;;3.07;;
9712;SDS011;4895;50.926;6.870;2023-07-20T00:06:23;9.23;;;4.10;;
9712;SDS011;4895;50.926;6.870;2023-07-20T00:08:49;8.53;;;3.57;;
9712;SDS011;4895;50.926;6.870;2023-07-20T00:11:15;9.47;;;3.80;;
9712;SDS011;4895;50.926;6.870;2023-07-20T00:13:40;9.17;;;3.67;;
9712;SDS011;4895;50.926;6.870;2023-07-20T00:16:06;11.00;;;3.60;;
9712;SDS011;4895;50.926;6.870;2023-07-20T00:18:31;8.70;;;3.40;;
9712;SDS011;4895;50.926;6.870;2023-07-20T00:20:57;7.67;;;3.50;;
9712;SDS011;4895;50.926;6.870;2023-07-20T00:23:22;7.93;;;3.70;;
9712;SDS011;4895;50.926;6.870;2023-07-20T00:25:48;11.30;;;4.17;;
9712;SDS011;4895;50.926;6.870;2023-07-20T00:28:13;5.63;;;3.77;;
9712;SDS011;4895;50.926;6.870;2023-07-20T00:30:39;11.17;;;4.20;;
9712;SDS011;4895;50.926;6.870;2023-07-20T00:33:05;6.53;;;3.73;;
9712;SDS011;4895;50.926;6.870;2023-07-20T00:35:30;11.90;;;3.90;;
9712;SDS011;4895;50.926;6.870;2023-07-20T00:37:55;6.97;;;4.23;;
9712;SDS011;4895;50.926;6.870;2023-07-20T00:40:20;9.40;;;4.80;;
9712;SDS011;4895;50.926;6.870;2023-07-20T00:42:46;11.10;;;4.10;;
9712;SDS011;4895;50.926;6.870;2023-07-20T00:45:11;10.10;;;4.00;;
9712;SDS011;4895;50.926;6.870;2023-07-20T00:47:36;11.20;;;3.93;;
9712;SDS011;4895;50.926;6.870;2023-07-20T00:50:02;7.70;;;4.00;;
9712;SDS011;4895;50.926;6.870;2023-07-20T00:52:27;15.10;;;4.20;;
9712;SDS011;4895;50.926;6.870;2023-07-20T00:54:53;5.90;;;3.70;;
9712;SDS011;4895;50.926;6.870;2023-07-20T00:57:21;8.17;;;3.67;;
9712;SDS011;4895;50.926;6.870;2023-07-20T00:59:47;8.90;;;3.60;;
9712;SDS011;4895;50.926;6.870;2023-07-20T01:02:13;7.70;;;3.10;;
9712;SDS011;4895;50.926;6.870;2023-07-20T01:04:38;13.27;;;4.03;;
9712;SDS011;4895;50.926;6.870;2023-07-20T01:09:39;6.03;;;3.53;;
9712;SDS011;4895;50.926;6.870;2023-07-20T01:12:12;7.00;;;3.70;;
9712;SDS011;4895;50.926;6.870;2023-07-20T01:14:39;4.00;;;3.40;;
9712;SDS011;4895;50.926;6.870;2023-07-20T01:17:05;6.30;;;3.63;;
9712;SDS011;4895;50.926;6.870;2023-07-20T01:19:30;9.30;;;3.77;;
9712;SDS011;4895;50.926;6.870;2023-07-20T01:22:03;10.20;;;4.00;;
9712;SDS011;4895;50.926;6.870;2023-07-20T01:32:33;6.50;;;3.53;;
9712;SDS011;4895;50.926;6.870;2023-07-20T01:34:59;5.03;;;3.77;;
9712;SDS011;4895;50.926;6.870;2023-07-20T01:37:26;5.90;;;3.30;;
9712;SDS011;4895;50.926;6.870;2023-07-20T01:39:54;6.30;;;3.50;;
9712;SDS011;4895;50.926;6.870;2023-07-20T01:42:21;10.80;;;4.10;;
9712;SDS011;4895;50.926;6.870;2023-07-20T01:44:47;6.43;;;3.40;;
9712;SDS011;4895;50.926;6.870;2023-07-20T01:47:12;7.50;;;3.83;;
9712;SDS011;4895;50.926;6.870;2023-07-20T01:49:38;6.90;;;4.13;;
9712;SDS011;4895;50.926;6.870;2023-07-20T01:52:03;8.33;;;3.70;;
9712;SDS011;4895;50.926;6.870;2023-07-20T01:54:29;7.60;;;3.57;;
9712;SDS011;4895;50.926;6.870;2023-07-20T01:56:54;8.27;;;3.90;;
9712;SDS011;4895;50.926;6.870;2023-07-20T01:59:20;6.57;;;3.90;;
9712;SDS011;4895;50.926;6.870;2023-07-20T02:01:45;8.67;;;3.73;;
9712;SDS011;4895;50.926;6.870;2023-07-20T02:04:10;8.17;;;4.60;;
9712;SDS011;4895;50.926;6.870;2023-07-20T02:06:36;6.37;;;4.00;;
9712;SDS011;4895;50.926;6.870;2023-07-20T02:09:01;5.33;;;3.87;;
9712;SDS011;4895;50.926;6.870;2023-07-20T02:11:26;11.60;;;4.53;;
9712;SDS011;4895;50.926;6.870;2023-07-20T02:13:51;8.30;;;4.20;;
9712;SDS011;4895;50.926;6.870;2023-07-20T02:16:17;8.90;;;4.33;;
9712;SDS011;4895;50.926;6.870;2023-07-20T02:18:42;7.83;;;4.53;;
9712;SDS011;4895;50.926;6.870;2023-07-20T02:21:07;9.10;;;4.90;;
9712;SDS011;4895;50.926;6.870;2023-07-20T02:23:32;6.87;;;3.83;;
9712;SDS011;4895;50.926;6.870;2023-07-20T02:25:58;9.80;;;4.93;;
9712;SDS011;4895;50.926;6.870;2023-07-20T02:28:23;8.20;;;4.43;;
9712;SDS011;4895;50.926;6.870;2023-07-20T02:30:48;9.73;;;4.23;;
9712;SDS011;4895;50.926;6.870;2023-07-20T02:33:14;6.90;;;4.30;;
9712;SDS011;4895;50.926;6.870;2023-07-20T02:35:40;8.50;;;4.10;;
9712;SDS011;4895;50.926;6.870;2023-07-20T02:38:05;9.53;;;4.83;;
9712;SDS011;4895;50.926;6.870;2023-07-20T02:40:32;6.57;;;3.93;;
9712;SDS011;4895;50.926;6.870;2023-07-20T02:42:57;8.30;;;4.67;;
9712;SDS011;4895;50.926;6.870;2023-07-20T02:45:22;8.23;;;4.53;;
9712;SDS011;4895;50.926;6.870;2023-07-20T02:47:48;7.70;;;4.53;;
9712;SDS011;4895;50.926;6.870;2023-07-20T02:50:14;10.30;;;5.07;;
9712;SDS011;4895;50.926;6.870;2023-07-20T02:52:39;10.37;;;4.60;;
9712;SDS011;4895;50.926;6.870;2023-07-20T02:55:04;8.27;;;4.70;;
9712;SDS011;4895;50.926;6.870;2023-07-20T02:57:30;7.80;;;4.77;;
9712;SDS011;4895;50.926;6.870;2023-07-20T02:59:55;6.70;;;4.30;;
9712;SDS011;4895;50.926;6.870;2023-07-20T03:02:20;9.70;;;4.50;;
9712;SDS011;4895;50.926;6.870;2023-07-20T03:04:45;13.07;;;4.93;;
9712;SDS011;4895;50.926;6.870;2023-07-20T03:07:11;8.40;;;4.07;;
9712;SDS011;4895;50.926;6.870;2023-07-20T03:09:36;13.13;;;5.10;;
9712;SDS011;4895;50.926;6.870;2023-07-20T03:12:01;8.67;;;4.60;;
9712;SDS011;4895;50.926;6.870;2023-07-20T03:14:29;13.33;;;4.07;;
9712;SDS011;4895;50.926;6.870;2023-07-20T03:16:54;8.23;;;4.80;;
9712;SDS011;4895;50.926;6.870;2023-07-20T03:19:19;9.70;;;4.70;;
9712;SDS011;4895;50.926;6.870;2023-07-20T03:21:45;8.63;;;4.03;;
9712;SDS011;4895;50.926;6.870;2023-07-20T03:24:10;10.33;;;5.20;;
9712;SDS011;4895;50.926;6.870;2023-07-20T03:26:36;10.10;;;4.97;;
9712;SDS011;4895;50.926;6.870;2023-07-20T03:29:02;8.47;;;3.60;;
9712;SDS011;4895;50.926;6.870;2023-07-20T03:31:27;9.40;;;4.43;;
9712;SDS011;4895;50.926;6.870;2023-07-20T03:33:52;9.10;;;4.77;;
9712;SDS011;4895;50.926;6.870;2023-07-20T03:36:17;12.93;;;4.73;;
9712;SDS011;4895;50.926;6.870;2023-07-20T03:38:43;10.57;;;3.93;;
9712;SDS011;4895;50.926;6.870;2023-07-20T03:41:08;8.87;;;4.03;;
9712;SDS011;4895;50.926;6.870;2023-07-20T03:43:34;7.47;;;3.70;;
9712;SDS011;4895;50.926;6.870;2023-07-20T03:45:59;7.13;;;4.30;;
9712;SDS011;4895;50.926;6.870;2023-07-20T03:48:24;7.03;;;3.97;;
9712;SDS011;4895;50.926;6.870;2023-07-20T03:50:51;8.93;;;5.30;;
9712;SDS011;4895;50.926;6.870;2023-07-20T03:53:17;9.20;;;4.20;;
9712;SDS011;4895;50.926;6.870;2023-07-20T03:55:46;8.43;;;4.00;;
9712;SDS011;4895;50.926;6.870;2023-07-20T03:58:13;9.30;;;4.23;;
9712;SDS011;4895;50.926;6.870;2023-07-20T04:00:39;6.17;;;4.20;;
9712;SDS011;4895;50.926;6.870;2023-07-20T04:03:05;7.80;;;3.83;;
9712;SDS011;4895;50.926;6.870;2023-07-20T04:05:30;10.73;;;3.87;;
9712;SDS011;4895;50.926;6.870;2023-07-20T04:07:55;9.77;;;4.10;;
9712;SDS011;4895;50.926;6.870;2023-07-20T04:10:21;7.07;;;3.60;;
9712;SDS011;4895;50.926;6.870;2023-07-20T04:12:46;13.10;;;4.10;;
9712;SDS011;4895;50.926;6.870;2023-07-20T04:15:14;8.13;;;3.73;;
9712;SDS011;4895;50.926;6.870;2023-07-20T04:17:40;14.37;;;3.90;;
9712;SDS011;4895;50.926;6.870;2023-07-20T04:20:08;7.83;;;4.33;;
9712;SDS011;4895;50.926;6.870;2023-07-20T04:22:34;15.03;;;4.70;;
9712;SDS011;4895;50.926;6.870;2023-07-20T04:24:59;5.47;;;3.20;;
9712;SDS011;4895;50.926;6.870;2023-07-20T04:27:25;9.07;;;4.07;;
9712;SDS011;4895;50.926;6.870;2023-07-20T04:29:51;12.77;;;4.17;;
9712;SDS011;4895;50.926;6.870;2023-07-20T04:32:16;10.20;;;4.43;;
9712;SDS011;4895;50.926;6.870;2023-07-20T04:34:42;10.03;;;4.60;;
9712;SDS011;4895;50.926;6.870;2023-07-20T04:37:07;8.63;;;3.80;;
9712;SDS011;4895;50.926;6.870;2023-07-20T04:39:32;8.60;;;3.47;;
9712;SDS011;4895;50.926;6.870;2023-07-20T04:41:57;13.83;;;4.10;;
9712;SDS011;4895;50.926;6.870;2023-07-20T04:44:23;11.53;;;4.30;;
9712;SDS011;4895;50.926;6.870;2023-07-20T04:46:48;7.37;;;3.87;;
9712;SDS011;4895;50.926;6.870;2023-07-20T04:49:13;14.50;;;5.30;;
9712;SDS011;4895;50.926;6.870;2023-07-20T04:51:39;9.97;;;4.83;;
9712;SDS011;4895;50.926;6.870;2023-07-20T04:54:04;8.60;;;4.50;;
9712;SDS011;4895;50.926;6.870;2023-07-20T04:56:30;7.97;;;4.00;;
9712;SDS011;4895;50.926;6.870;2023-07-20T04:58:55;15.30;;;5.07;;
9712;SDS011;4895;50.926;6.870;2023-07-20T05:01:21;11.10;;;4.20;;
9712;SDS011;4895;50.926;6.870;2023-07-20T05:03:46;12.37;;;5.30;;
9712;SDS011;4895;50.926;6.870;2023-07-20T05:06:11;9.70;;;4.53;;
9712;SDS011;4895;50.926;6.870;2023-07-20T05:08:37;16.13;;;5.27;;
9712;SDS011;4895;50.926;6.870;2023-07-20T05:11:03;11.20;;;5.30;;
9712;SDS011;4895;50.926;6.870;2023-07-20T05:13:29;12.63;;;4.83;;
9712;SDS011;4895;50.926;6.870;2023-07-20T05:15:54;20.97;;;5.20;;
9712;SDS011;4895;50.926;6.870;2023-07-20T05:18:19;10.57;;;6.20;;
9712;SDS011;4895;50.926;6.870;2023-07-20T05:20:49;13.07;;;5.30;;
9712;SDS011;4895;50.926;6.870;2023-07-20T05:23:18;13.23;;;5.13;;
9712;SDS011;4895;50.926;6.870;2023-07-20T05:25:44;12.70;;;5.90;;
9712;SDS011;4895;50.926;6.870;2023-07-20T05:28:09;9.83;;;5.47;;
9712;SDS011;4895;50.926;6.870;2023-07-20T05:30:34;11.37;;;6.00;;
9712;SDS011;4895;50.926;6.870;2023-07-20T05:33:00;14.00;;;6.00;;
9712;SDS011;4895;50.926;6.870;2023-07-20T05:35:25;12.47;;;5.13;;
9712;SDS011;4895;50.926;6.870;2023-07-20T05:37:51;17.00;;;5.83;;
9712;SDS011;4895;50.926;6.870;2023-07-20T05:40:16;9.30;;;5.37;;
9712;SDS011;4895;50.926;6.870;2023-07-20T05:42:46;14.73;;;5.03;;
9712;SDS011;4895;50.926;6.870;2023-07-20T05:45:12;18.17;;;5.33;;
9712;SDS011;4895;50.926;6.870;2023-07-20T05:47:38;9.37;;;5.20;;
9712;SDS011;4895;50.926;6.870;2023-07-20T05:50:03;12.73;;;6.37;;
9712;SDS011;4895;50.926;6.870;2023-07-20T05:52:29;12.93;;;6.50;;
9712;SDS011;4895;50.926;6.870;2023-07-20T05:54:54;18.47;;;7.50;;
9712;SDS011;4895;50.926;6.870;2023-07-20T05:57:20;13.40;;;7.00;;
9712;SDS011;4895;50.926;6.870;2023-07-20T05:59:45;14.07;;;8.00;;
9712;SDS011;4895;50.926;6.870;2023-07-20T06:02:10;12.17;;;8.07;;
9712;SDS011;4895;50.926;6.870;2023-07-20T06:04:36;14.27;;;8.20;;
9712;SDS011;4895;50.926;6.870;2023-07-20T06:07:01;14.70;;;7.70;;
9712;SDS011;4895;50.926;6.870;2023-07-20T06:09:27;16.70;;;8.43;;
9712;SDS011;4895;50.926;6.870;2023-07-20T06:11:52;11.03;;;7.13;;
9712;SDS011;4895;50.926;6.870;2023-07-20T06:14:18;14.57;;;7.50;;
9712;SDS011;4895;50.926;6.870;2023-07-20T06:16:43;17.13;;;7.77;;
9712;SDS011;4895;50.926;6.870;2023-07-20T06:19:09;14.10;;;8.07;;
9712;SDS011;4895;50.926;6.870;2023-07-20T06:21:37;18.30;;;7.40;;
9712;SDS011;4895;50.926;6.870;2023-07-20T06:24:02;14.50;;;7.83;;
9712;SDS011;4895;50.926;6.870;2023-07-20T06:26:27;13.43;;;7.30;;
9712;SDS011;4895;50.926;6.870;2023-07-20T06:28:54;25.90;;;8.23;;
9712;SDS011;4895;50.926;6.870;2023-07-20T06:31:20;14.90;;;9.60;;
9712;SDS011;4895;50.926;6.870;2023-07-20T06:33:45;19.13;;;9.83;;
9712;SDS011;4895;50.926;6.870;2023-07-20T06:36:10;19.33;;;11.07;;
9712;SDS011;4895;50.926;6.870;2023-07-20T06:38:36;14.00;;;8.63;;
9712;SDS011;4895;50.926;6.870;2023-07-20T06:41:01;19.53;;;9.30;;
9712;SDS011;4895;50.926;6.870;2023-07-20T06:43:26;13.03;;;7.60;;
9712;SDS011;4895;50.926;6.870;2023-07-20T06:45:52;16.43;;;7.73;;
9712;SDS011;4895;50.926;6.870;2023-07-20T06:48:18;16.83;;;9.40;;
9712;SDS011;4895;50.926;6.870;2023-07-20T06:50:44;16.07;;;10.40;;
9712;SDS011;4895;50.926;6.870;2023-07-20T06:53:09;15.70;;;9.00;;
9712;SDS011;4895;50.926;6.870;2023-07-20T06:55:34;14.13;;;9.30;;
9712;SDS011;4895;50.926;6.870;2023-07-20T06:57:59;15.70;;;9.60;;
9712;SDS011;4895;50.926;6.870;2023-07-20T07:00:25;18.70;;;9.97;;
9712;SDS011;4895;50.926;6.870;2023-07-20T07:02:50;14.33;;;9.77;;
9712;SDS011;4895;50.926;6.870;2023-07-20T07:05:15;15.77;;;9.53;;
9712;SDS011;4895;50.926;6.870;2023-07-20T07:07:41;16.50;;;8.67;;
9712;SDS011;4895;50.926;6.870;2023-07-20T07:10:06;18.20;;;7.60;;
9712;SDS011;4895;50.926;6.870;2023-07-20T07:12:32;11.83;;;7.90;;
9712;SDS011;4895;50.926;6.870;2023-07-20T07:14:57;13.80;;;8.60;;
9712;SDS011;4895;50.926;6.870;2023-07-20T07:17:23;11.30;;;7.93;;
9712;SDS011;4895;50.926;6.870;2023-07-20T07:19:48;11.60;;;7.60;;
9712;SDS011;4895;50.926;6.870;2023-07-20T07:22:14;12.00;;;7.97;;
9712;SDS011;4895;50.926;6.870;2023-07-20T07:24:39;15.20;;;8.83;;
9712;SDS011;4895;50.926;6.870;2023-07-20T07:27:06;12.43;;;8.80;;
9712;SDS011;4895;50.926;6.870;2023-07-20T07:29:33;14.80;;;7.00;;
9712;SDS011;4895;50.926;6.870;2023-07-20T07:31:58;13.93;;;8.20;;
9712;SDS011;4895;50.926;6.870;2023-07-20T07:34:23;9.57;;;7.00;;
9712;SDS011;4895;50.926;6.870;2023-07-20T07:36:48;11.60;;;7.53;;
9712;SDS011;4895;50.926;6.870;2023-07-20T07:39:15;11.10;;;6.53;;
9712;SDS011;4895;50.926;6.870;2023-07-20T07:41:40;7.80;;;6.20;;
9712;SDS011;4895;50.926;6.870;2023-07-20T07:44:05;12.30;;;5.87;;
9712;SDS011;4895;50.926;6.870;2023-07-20T07:46:31;12.87;;;6.00;;
9712;SDS011;4895;50.926;6.870;2023-07-20T07:48:56;8.93;;;6.00;;
9712;SDS011;4895;50.926;6.870;2023-07-20T07:51:21;10.50;;;6.70;;
9712;SDS011;4895;50.926;6.870;2023-07-20T07:53:47;9.13;;;5.37;;
9712;SDS011;4895;50.926;6.870;2023-07-20T07:56:14;11.10;;;5.70;;
9712;SDS011;4895;50.926;6.870;2023-07-20T07:58:39;8.93;;;5.50;;
9712;SDS011;4895;50.926;6.870;2023-07-20T08:01:05;9.10;;;5.87;;
9712;SDS011;4895;50.926;6.870;2023-07-20T08:03:30;8.80;;;6.20;;
9712;SDS011;4895;50.926;6.870;2023-07-20T08:05:56;8.63;;;6.20;;
9712;SDS011;4895;50.926;6.870;2023-07-20T08:08:21;12.37;;;6.37;;
9712;SDS011;4895;50.926;6.870;2023-07-20T08:10:47;8.13;;;5.07;;
9712;SDS011;4895;50.926;6.870;2023-07-20T08:13:13;11.10;;;5.97;;
9712;SDS011;4895;50.926;6.870;2023-07-20T08:15:38;11.73;;;5.53;;
9712;SDS011;4895;50.926;6.870;2023-07-20T08:18:04;9.63;;;5.47;;
9712;SDS011;4895;50.926;6.870;2023-07-20T08:20:29;11.77;;;5.80;;
9712;SDS011;4895;50.926;6.870;2023-07-20T08:22:54;11.73;;;5.30;;
9712;SDS011;4895;50.926;6.870;2023-07-20T08:25:20;9.10;;;5.30;;
9712;SDS011;4895;50.926;6.870;2023-07-20T08:27:46;8.80;;;4.53;;
9712;SDS011;4895;50.926;6.870;2023-07-20T08:30:13;6.87;;;4.50;;
9712;SDS011;4895;50.926;6.870;2023-07-20T08:32:38;9.03;;;4.17;;
9712;SDS011;4895;50.926;6.870;2023-07-20T08:35:04;10.67;;;4.30;;
9712;SDS011;4895;50.926;6.870;2023-07-20T08:37:30;7.60;;;4.30;;
9712;SDS011;4895;50.926;6.870;2023-07-20T08:39:56;8.50;;;5.30;;
9712;SDS011;4895;50.926;6.870;2023-07-20T08:42:21;10.13;;;5.07;;
9712;SDS011;4895;50.926;6.870;2023-07-20T08:44:47;7.80;;;3.67;;
9712;SDS011;4895;50.926;6.870;2023-07-20T08:47:13;8.53;;;3.83;;
9712;SDS011;4895;50.926;6.870;2023-07-20T08:49:41;7.03;;;3.33;;
9712;SDS011;4895;50.926;6.870;2023-07-20T08:52:06;7.07;;;3.03;;
9712;SDS011;4895;50.926;6.870;2023-07-20T08:54:32;9.40;;;4.30;;
9712;SDS011;4895;50.926;6.870;2023-07-20T08:57:02;4.73;;;3.40;;
9712;SDS011;4895;50.926;6.870;2023-07-20T08:59:29;5.60;;;3.40;;
9712;SDS011;4895;50.926;6.870;2023-07-20T09:01:55;5.40;;;3.30;;
9712;SDS011;4895;50.926;6.870;2023-07-20T09:04:24;6.73;;;3.00;;
9712;SDS011;4895;50.926;6.870;2023-07-20T09:06:49;5.80;;;3.67;;
9712;SDS011;4895;50.926;6.870;2023-07-20T09:09:15;6.97;;;3.57;;
9712;SDS011;4895;50.926;6.870;2023-07-20T09:11:40;8.80;;;3.80;;
9712;SDS011;4895;50.926;6.870;2023-07-20T09:14:07;3.93;;;2.80;;
9712;SDS011;4895;50.926;6.870;2023-07-20T09:16:49;7.00;;;2.60;;
9712;SDS011;4895;50.926;6.870;2023-07-20T09:19:18;6.80;;;2.80;;
9712;SDS011;4895;50.926;6.870;2023-07-20T09:21:44;10.00;;;3.20;;
9712;SDS011;4895;50.926;6.870;2023-07-20T09:24:11;6.67;;;2.73;;
9712;SDS011;4895;50.926;6.870;2023-07-20T09:26:41;5.67;;;3.10;;
9712;SDS011;4895;50.926;6.870;2023-07-20T09:29:08;6.20;;;2.80;;
9712;SDS011;4895;50.926;6.870;2023-07-20T09:31:34;9.10;;;3.43;;
9712;SDS011;4895;50.926;6.870;2023-07-20T09:33:59;7.17;;;3.10;;
9712;SDS011;4895;50.926;6.870;2023-07-20T09:36:26;9.63;;;2.90;;
9712;SDS011;4895;50.926;6.870;2023-07-20T09:38:52;5.80;;;2.53;;
9712;SDS011;4895;50.926;6.870;2023-07-20T09:41:17;6.33;;;2.40;;
9712;SDS011;4895;50.926;6.870;2023-07-20T09:43:43;5.67;;;2.10;;
9712;SDS011;4895;50.926;6.870;2023-07-20T09:46:08;5.33;;;2.10;;
9712;SDS011;4895;50.926;6.870;2023-07-20T09:48:34;4.80;;;2.17;;
9712;SDS011;4895;50.926;6.870;2023-07-20T09:50:59;5.30;;;2.10;;
9712;SDS011;4895;50.926;6.870;2023-07-20T09:53:25;3.10;;;1.70;;
9712;SDS011;4895;50.926;6.870;2023-07-20T09:55:51;4.27;;;1.90;;
9712;SDS011;4895;50.926;6.870;2023-07-20T09:58:17;5.17;;;2.37;;
9712;SDS011;4895;50.926;6.870;2023-07-20T10:00:43;7.90;;;2.50;;
9712;SDS011;4895;50.926;6.870;2023-07-20T10:03:16;4.60;;;2.30;;
9712;SDS011;4895;50.926;6.870;2023-07-20T10:05:49;5.97;;;2.43;;
9712;SDS011;4895;50.926;6.870;2023-07-20T10:08:20;7.37;;;2.33;;
9712;SDS011;4895;50.926;6.870;2023-07-20T10:10:49;6.57;;;2.30;;
9712;SDS011;4895;50.926;6.870;2023-07-20T10:13:17;5.10;;;2.67;;
9712;SDS011;4895;50.926;6.870;2023-07-20T10:15:44;5.30;;;2.77;;
9712;SDS011;4895;50.926;6.870;2023-07-20T10:18:14;3.20;;;1.80;;
9712;SDS011;4895;50.926;6.870;2023-07-20T10:20:43;6.70;;;2.53;;
9712;SDS011;4895;50.926;6.870;2023-07-20T10:23:09;3.33;;;2.10;;
9712;SDS011;4895;50.926;6.870;2023-07-20T10:25:35;8.80;;;2.50;;
9712;SDS011;4895;50.926;6.870;2023-07-20T10:28:06;4.60;;;2.30;;
9712;SDS011;4895;50.926;6.870;2023-07-20T10:30:35;7.77;;;1.77;;
9712;SDS011;4895;50.926;6.870;2023-07-20T10:33:03;7.73;;;2.10;;
9712;SDS011;4895;50.926;6.870;2023-07-20T10:35:29;4.13;;;2.27;;
9712;SDS011;4895;50.926;6.870;2023-07-20T10:38:01;4.57;;;2.10;;
9712;SDS011;4895;50.926;6.870;2023-07-20T10:40:31;3.50;;;2.13;;
9712;SDS011;4895;50.926;6.870;2023-07-20T10:42:58;6.60;;;2.00;;
9712;SDS011;4895;50.926;6.870;2023-07-20T10:48:04;4.30;;;2.30;;
9712;SDS011;4895;50.926;6.870;2023-07-20T10:50:44;4.67;;;2.17;;
9712;SDS011;4895;50.926;6.870;2023-07-20T10:53:14;4.97;;;2.40;;
9712;SDS011;4895;50.926;6.870;2023-07-20T10:55:41;4.30;;;2.50;;
9712;SDS011;4895;50.926;6.870;2023-07-20T11:00:36;4.47;;;2.10;;
9712;SDS011;4895;50.926;6.870;2023-07-20T11:03:02;3.23;;;2.10;;
9712;SDS011;4895;50.926;6.870;2023-07-20T11:08:14;2.60;;;2.03;;
9712;SDS011;4895;50.926;6.870;2023-07-20T11:11:23;4.53;;;2.20;;
9712;SDS011;4895;50.926;6.870;2023-07-20T11:13:59;7.50;;;2.23;;
9712;SDS011;4895;50.926;6.870;2023-07-20T11:19:13;3.80;;;2.23;;
9712;SDS011;4895;50.926;6.870;2023-07-20T11:21:58;12.00;;;2.23;;
9712;SDS011;4895;50.926;6.870;2023-07-20T11:24:23;2.60;;;1.60;;
9712;SDS011;4895;50.926;6.870;2023-07-20T11:26:49;3.77;;;1.80;;
9712;SDS011;4895;50.926;6.870;2023-07-20T11:29:17;4.00;;;1.67;;
9712;SDS011;4895;50.926;6.870;2023-07-20T11:31:43;3.33;;;1.70;;
9712;SDS011;4895;50.926;6.870;2023-07-20T11:34:14;4.37;;;1.50;;
9712;SDS011;4895;50.926;6.870;2023-07-20T11:36:40;5.53;;;2.00;;
9712;SDS011;4895;50.926;6.870;2023-07-20T11:39:10;5.47;;;1.80;;
9712;SDS011;4895;50.926;6.870;2023-07-20T11:41:37;2.27;;;1.77;;
9712;SDS011;4895;50.926;6.870;2023-07-20T11:44:03;3.70;;;1.40;;
9712;SDS011;4895;50.926;6.870;2023-07-20T11:46:29;2.83;;;1.53;;
9712;SDS011;4895;50.926;6.870;2023-07-20T11:49:00;2.83;;;1.40;;
9712;SDS011;4895;50.926;6.870;2023-07-20T11:51:27;5.80;;;1.70;;
9712;SDS011;4895;50.926;6.870;2023-07-20T11:53:53;3.70;;;1.40;;
9712;SDS011;4895;50.926;6.870;2023-07-20T11:56:19;3.10;;;1.70;;
9712;SDS011;4895;50.926;6.870;2023-07-20T11:58:44;3.80;;;1.80;;
9712;SDS011;4895;50.926;6.870;2023-07-20T12:01:11;4.97;;;1.70;;
9712;SDS011;4895;50.926;6.870;2023-07-20T12:03:43;3.57;;;1.87;;
9712;SDS011;4895;50.926;6.870;2023-07-20T12:06:09;5.40;;;1.57;;
9712;SDS011;4895;50.926;6.870;2023-07-20T12:08:37;3.73;;;1.60;;
9712;SDS011;4895;50.926;6.870;2023-07-20T12:11:03;5.10;;;1.70;;
9712;SDS011;4895;50.926;6.870;2023-07-20T12:13:40;3.97;;;1.87;;
9712;SDS011;4895;50.926;6.870;2023-07-20T12:16:14;2.57;;;1.53;;
9712;SDS011;4895;50.926;6.870;2023-07-20T12:18:43;2.30;;;1.63;;
9712;SDS011;4895;50.926;6.870;2023-07-20T12:21:09;2.47;;;1.40;;
9712;SDS011;4895;50.926;6.870;2023-07-20T12:23:39;3.80;;;1.50;;
9712;SDS011;4895;50.926;6.870;2023-07-20T12:26:08;6.27;;;1.57;;
9712;SDS011;4895;50.926;6.870;2023-07-20T12:28:35;3.60;;;1.70;;
9712;SDS011;4895;50.926;6.870;2023-07-20T12:31:04;2.80;;;1.63;;
9712;SDS011;4895;50.926;6.870;2023-07-20T12:33:30;2.43;;;1.70;;
9712;SDS011;4895;50.926;6.870;2023-07-20T12:35:55;3.20;;;1.50;;
9712;SDS011;4895;50.926;6.870;2023-07-20T12:38:20;10.73;;;2.20;;
9712;SDS011;4895;50.926;6.870;2023-07-20T12:40:46;2.80;;;1.67;;
9712;SDS011;4895;50.926;6.870;2023-07-20T12:43:11;4.00;;;1.70;;
9712;SDS011;4895;50.926;6.870;2023-07-20T12:45:36;7.00;;;1.60;;
9712;SDS011;4895;50.926;6.870;2023-07-20T12:48:02;6.70;;;1.60;;
9712;SDS011;4895;50.926;6.870;2023-07-20T12:50:27;4.17;;;1.60;;
9712;SDS011;4895;50.926;6.870;2023-07-20T12:52:52;14.03;;;1.80;;
9712;SDS011;4895;50.926;6.870;2023-07-20T12:55:18;2.80;;;1.60;;
9712;SDS011;4895;50.926;6.870;2023-07-20T12:57:43;5.50;;;1.70;;
9712;SDS011;4895;50.926;6.870;2023-07-20T13:00:09;3.63;;;1.80;;
9712;SDS011;4895;50.926;6.870;2023-07-20T13:02:37;4.50;;;1.67;;
9712;SDS011;4895;50.926;6.870;2023-07-20T13:05:03;4.00;;;1.90;;
9712;SDS011;4895;50.926;6.870;2023-07-20T13:07:38;4.17;;;1.70;;
9712;SDS011;4895;50.926;6.870;2023-07-20T13:10:04;2.83;;;1.50;;
9712;SDS011;4895;50.926;6.870;2023-07-20T13:12:31;5.53;;;1.50;;
9712;SDS011;4895;50.926;6.870;2023-07-20T13:14:57;2.77;;;1.50;;
9712;SDS011;4895;50.926;6.870;2023-07-20T13:17:25;5.10;;;1.97;;
9712;SDS011;4895;50.926;6.870;2023-07-20T13:19:51;7.27;;;1.30;;
9712;SDS011;4895;50.926;6.870;2023-07-20T13:22:17;4.57;;;1.60;;
9712;SDS011;4895;50.926;6.870;2023-07-20T13:24:44;3.40;;;1.90;;
9712;SDS011;4895;50.926;6.870;2023-07-20T13:27:10;3.07;;;1.70;;
9712;SDS011;4895;50.926;6.870;2023-07-20T13:29:35;3.30;;;1.60;;
9712;SDS011;4895;50.926;6.870;2023-07-20T13:32:01;6.23;;;1.60;;
9712;SDS011;4895;50.926;6.870;2023-07-20T13:34:29;4.10;;;1.47;;
9712;SDS011;4895;50.926;6.870;2023-07-20T13:36:54;16.57;;;1.87;;
9712;SDS011;4895;50.926;6.870;2023-07-20T13:39:19;6.20;;;1.60;;
9712;SDS011;4895;50.926;6.870;2023-07-20T13:41:45;2.73;;;1.53;;
9712;SDS011;4895;50.926;6.870;2023-07-20T13:44:10;3.50;;;1.80;;
9712;SDS011;4895;50.926;6.870;2023-07-20T13:46:35;3.13;;;1.50;;
9712;SDS011;4895;50.926;6.870;2023-07-20T13:49:01;6.50;;;1.70;;
9712;SDS011;4895;50.926;6.870;2023-07-20T13:51:26;7.70;;;1.90;;
9712;SDS011;4895;50.926;6.870;2023-07-20T13:53:51;3.30;;;1.57;;
9712;SDS011;4895;50.926;6.870;2023-07-20T13:56:17;4.90;;;1.70;;
9712;SDS011;4895;50.926;6.870;2023-07-20T13:58:42;4.70;;;1.67;;
9712;SDS011;4895;50.926;6.870;2023-07-20T14:01:07;5.37;;;1.77;;
9712;SDS011;4895;50.926;6.870;2023-07-20T14:03:32;2.80;;;1.87;;
9712;SDS011;4895;50.926;6.870;2023-07-20T14:05:58;15.87;;;2.30;;
9712;SDS011;4895;50.926;6.870;2023-07-20T14:08:23;5.00;;;1.73;;
9712;SDS011;4895;50.926;6.870;2023-07-20T14:10:48;2.73;;;1.47;;
9712;SDS011;4895;50.926;6.870;2023-07-20T14:13:14;7.10;;;1.73;;
9712;SDS011;4895;50.926;6.870;2023-07-20T14:15:39;4.80;;;1.53;;
9712;SDS011;4895;50.926;6.870;2023-07-20T14:18:05;9.70;;;1.60;;
9712;SDS011;4895;50.926;6.870;2023-07-20T14:20:30;7.37;;;1.53;;
9712;SDS011;4895;50.926;6.870;2023-07-20T14:22:55;4.07;;;1.90;;
9712;SDS011;4895;50.926;6.870;2023-07-20T14:25:21;4.50;;;1.73;;
9712;SDS011;4895;50.926;6.870;2023-07-20T14:27:46;2.93;;;1.67;;
9712;SDS011;4895;50.926;6.870;2023-07-20T14:30:11;2.70;;;1.50;;
9712;SDS011;4895;50.926;6.870;2023-07-20T14:32:38;3.33;;;1.30;;
9712;SDS011;4895;50.926;6.870;2023-07-20T14:35:03;1.83;;;1.30;;
9712;SDS011;4895;50.926;6.870;2023-07-20T14:37:29;2.77;;;1.50;;
9712;SDS011;4895;50.926;6.870;2023-07-20T14:39:54;2.47;;;1.27;;
9712;SDS011;4895;50.926;6.870;2023-07-20T14:42:19;2.13;;;1.47;;
9712;SDS011;4895;50.926;6.870;2023-07-20T14:44:45;2.90;;;1.67;;
9712;SDS011;4895;50.926;6.870;2023-07-20T14:47:10;4.63;;;1.80;;
9712;SDS011;4895;50.926;6.870;2023-07-20T14:49:35;3.70;;;1.40;;
9712;SDS011;4895;50.926;6.870;2023-07-20T14:52:01;2.63;;;1.37;;
9712;SDS011;4895;50.926;6.870;2023-07-20T14:54:27;2.03;;;1.40;;
9712;SDS011;4895;50.926;6.870;2023-07-20T14:56:52;5.10;;;1.60;;
9712;SDS011;4895;50.926;6.870;2023-07-20T14:59:18;7.53;;;1.60;;
9712;SDS011;4895;50.926;6.870;2023-07-20T15:01:44;3.73;;;1.67;;
9712;SDS011;4895;50.926;6.870;2023-07-20T15:04:12;2.63;;;1.70;;
9712;SDS011;4895;50.926;6.870;2023-07-20T15:06:40;2.80;;;1.50;;
9712;SDS011;4895;50.926;6.870;2023-07-20T15:09:06;6.27;;;1.70;;
9712;SDS011;4895;50.926;6.870;2023-07-20T15:11:31;2.77;;;1.40;;
9712;SDS011;4895;50.926;6.870;2023-07-20T15:13:58;2.47;;;1.60;;
9712;SDS011;4895;50.926;6.870;2023-07-20T15:16:23;2.63;;;1.77;;
9712;SDS011;4895;50.926;6.870;2023-07-20T15:18:49;2.70;;;1.40;;
9712;SDS011;4895;50.926;6.870;2023-07-20T15:21:14;4.77;;;1.80;;
9712;SDS011;4895;50.926;6.870;2023-07-20T15:23:40;6.33;;;1.70;;
9712;SDS011;4895;50.926;6.870;2023-07-20T15:26:06;3.37;;;1.60;;